Time;durP1;ratioP1;P1;durP2;ratioP2;P2;SDS_P1;SDS_P2;PMS_P1;PMS_P2;Temp;Humidity;BMP_temperature;BMP_pressure;BME280_temperature;BME280_humidity;BME280_pressure;Samples;Min_cycle;Max_cycle;Signal;HPM_P1;HPM_P2
2022/03/15 00:00:24;;;;;;;7.20;3.97;;;4.30;99.90;;;;;;5059948;28;20073;-70
2022/03/15 00:02:50;;;;;;;7.47;4.40;;;4.20;99.90;;;;;;5067632;28;20055;-71
2022/03/15 00:05:19;;;;;;;12.10;6.10;;;4.10;99.90;;;;;;5055209;28;20484;-71
2022/03/15 00:07:45;;;;;;;11.00;6.00;;;4.10;99.90;;;;;;5072978;28;20214;-69
2022/03/15 00:10:12;;;;;;;8.00;5.97;;;4.10;99.90;;;;;;5054629;28;20049;-70
2022/03/15 00:12:43;;;;;;;9.80;4.82;;;4.10;99.90;;;;;;5041361;28;20047;-70
2022/03/15 00:15:10;;;;;;;6.35;3.70;;;4.20;99.90;;;;;;5057282;28;20040;-71
2022/03/15 00:17:40;;;;;;;8.30;4.63;;;4.20;99.90;;;;;;5040725;28;20041;-70
2022/03/15 00:20:08;;;;;;;8.52;4.72;;;4.20;99.90;;;;;;5074654;28;20041;-71
2022/03/15 00:22:37;;;;;;;8.80;5.40;;;4.20;99.90;;;;;;5058298;28;20068;-71
2022/03/15 00:25:05;;;;;;;12.23;6.18;;;4.20;99.90;;;;;;5056692;28;20043;-71
2022/03/15 00:27:32;;;;;;;9.40;4.45;;;4.20;99.90;;;;;;5070708;28;20177;-71
2022/03/15 00:29:58;;;;;;;6.43;5.05;;;4.20;99.90;;;;;;5057259;28;20040;-71
2022/03/15 00:32:25;;;;;;;5.65;5.15;;;4.10;99.90;;;;;;5050106;28;20085;-71
2022/03/15 00:34:51;;;;;;;11.38;7.50;;;4.10;99.90;;;;;;5057665;28;20060;-72
2022/03/15 00:37:16;;;;;;;8.32;5.95;;;4.00;99.90;;;;;;5049442;28;20048;-71
2022/03/15 00:39:43;;;;;;;5.82;4.50;;;4.00;99.90;;;;;;5054286;28;20393;-71
2022/03/15 00:42:08;;;;;;;7.28;5.28;;;4.00;99.90;;;;;;5054204;28;20036;-71
2022/03/15 00:44:34;;;;;;;14.20;8.63;;;4.00;99.90;;;;;;5071998;28;20044;-72
2022/03/15 00:47:01;;;;;;;16.58;11.48;;;4.00;99.90;;;;;;5054043;28;20503;-72
2022/03/15 00:49:26;;;;;;;15.77;10.70;;;4.00;99.90;;;;;;5040298;28;20039;-71
2022/03/15 00:51:52;;;;;;;17.48;10.73;;;4.00;99.90;;;;;;5053166;28;20036;-71
2022/03/15 00:54:18;;;;;;;22.05;9.90;;;3.90;99.90;;;;;;5053581;28;21670;-71
2022/03/15 00:56:44;;;;;;;21.30;9.50;;;3.90;99.90;;;;;;5058205;28;20405;-71
2022/03/15 00:59:09;;;;;;;21.30;8.75;;;3.80;99.90;;;;;;5064277;28;20381;-71
2022/03/15 01:01:36;;;;;;;15.10;8.50;;;3.80;99.90;;;;;;5057926;28;20373;-71
2022/03/15 01:04:02;;;;;;;18.83;9.55;;;3.80;99.90;;;;;;5071995;28;20036;-71
2022/03/15 01:06:28;;;;;;;26.02;11.85;;;3.80;99.90;;;;;;5075860;28;20040;-69
2022/03/15 01:08:54;;;;;;;24.20;10.40;;;3.80;99.90;;;;;;5071113;28;20062;-71
2022/03/15 01:11:20;;;;;;;23.63;9.98;;;3.80;99.90;;;;;;5053332;28;20048;-70
2022/03/15 01:13:47;;;;;;;21.35;9.68;;;3.80;99.90;;;;;;5058256;28;20044;-69
2022/03/15 01:16:13;;;;;;;20.23;10.10;;;3.80;99.90;;;;;;5075970;28;20117;-71
2022/03/15 01:18:38;;;;;;;21.77;9.43;;;3.90;99.90;;;;;;5071463;28;20159;-71
2022/03/15 01:21:04;;;;;;;22.70;10.13;;;3.90;99.90;;;;;;5053781;28;20036;-70
2022/03/15 01:23:31;;;;;;;18.02;8.48;;;3.90;99.90;;;;;;5035080;28;20463;-71
2022/03/15 01:25:57;;;;;;;17.23;8.07;;;4.00;99.90;;;;;;5055007;28;20151;-71
2022/03/15 01:28:24;;;;;;;19.20;8.82;;;4.00;99.90;;;;;;5048548;28;20804;-71
2022/03/15 01:30:50;;;;;;;22.58;9.85;;;4.00;99.90;;;;;;5075094;28;20039;-71
2022/03/15 01:33:16;;;;;;;19.20;9.88;;;3.90;99.90;;;;;;5075040;28;20028;-71
2022/03/15 01:35:42;;;;;;;19.00;8.70;;;4.00;99.90;;;;;;5072396;28;20036;-70
2022/03/15 01:38:08;;;;;;;16.75;8.65;;;4.00;99.90;;;;;;5025899;28;20055;-71
2022/03/15 01:40:34;;;;;;;17.60;8.95;;;4.00;99.90;;;;;;5053715;28;20040;-70
2022/03/15 01:43:00;;;;;;;19.80;9.57;;;3.90;99.90;;;;;;5035198;28;20028;-71
2022/03/15 01:45:53;;;;;;;15.90;8.80;;;3.90;99.90;;;;;;5056024;28;20048;-71
2022/03/15 01:48:20;;;;;;;19.92;9.45;;;3.90;99.90;;;;;;5050751;28;20052;-71
2022/03/15 01:50:46;;;;;;;18.90;9.20;;;3.90;99.90;;;;;;5073513;28;20044;-69
2022/03/15 01:53:15;;;;;;;23.75;10.95;;;3.90;99.90;;;;;;5052856;28;20122;-71
2022/03/15 01:55:41;;;;;;;18.80;10.88;;;3.90;99.90;;;;;;5060011;28;20040;-71
2022/03/15 01:58:07;;;;;;;17.65;9.60;;;3.90;99.90;;;;;;5071353;28;20037;-71
2022/03/15 02:00:32;;;;;;;20.73;8.18;;;3.90;99.90;;;;;;5075509;28;20036;-70
2022/03/15 02:02:58;;;;;;;66.55;10.25;;;3.80;99.90;;;;;;5072066;28;20063;-70
2022/03/15 02:05:24;;;;;;;14.38;8.70;;;3.80;99.90;;;;;;5055617;28;20052;-69
2022/03/15 02:07:50;;;;;;;16.77;9.20;;;3.80;99.90;;;;;;5041203;28;21181;-72
2022/03/15 02:10:15;;;;;;;21.05;9.88;;;3.80;99.90;;;;;;5056848;28;20037;-71
2022/03/15 02:12:41;;;;;;;16.65;9.43;;;3.70;99.90;;;;;;5053040;28;20045;-72
2022/03/15 02:15:08;;;;;;;17.88;9.90;;;3.80;99.90;;;;;;5052694;28;20523;-71
2022/03/15 02:17:36;;;;;;;18.92;10.48;;;3.80;99.90;;;;;;5055398;28;20086;-70
2022/03/15 02:20:09;;;;;;;21.60;11.55;;;3.80;99.90;;;;;;5056692;28;20052;-71
2022/03/15 02:22:35;;;;;;;;;;;3.80;99.90;;;;;;5050833;28;20419;-73
2022/03/15 02:25:01;;;;;;;23.50;12.82;;;3.80;99.90;;;;;;5053036;28;19917;-71
2022/03/15 02:27:26;;;;;;;20.48;11.25;;;3.80;99.90;;;;;;5056188;28;20079;-71
2022/03/15 02:29:52;;;;;;;23.98;11.88;;;3.80;99.90;;;;;;5040387;28;20512;-70
2022/03/15 02:32:18;;;;;;;21.15;12.15;;;3.80;99.90;;;;;;5052721;28;20048;-74
2022/03/15 02:34:43;;;;;;;23.55;9.85;;;3.80;99.90;;;;;;5040217;28;20123;-71
2022/03/15 02:37:09;;;;;;;15.57;8.13;;;3.80;99.90;;;;;;5054857;28;20055;-71
2022/03/15 02:39:35;;;;;;;20.05;9.20;;;3.80;99.90;;;;;;5038119;28;20412;-71
2022/03/15 02:42:01;;;;;;;16.52;10.32;;;3.80;99.90;;;;;;5070912;28;20104;-71
2022/03/15 02:44:26;;;;;;;19.77;11.10;;;3.80;99.90;;;;;;5049146;28;20037;-70
2022/03/15 02:46:52;;;;;;;20.45;10.02;;;3.70;99.90;;;;;;5051532;28;20036;-71
2022/03/15 02:49:18;;;;;;;19.23;11.15;;;3.70;99.90;;;;;;5055803;28;20258;-68
2022/03/15 02:51:44;;;;;;;21.20;10.73;;;3.70;99.90;;;;;;5055896;28;20040;-69
2022/03/15 02:54:11;;;;;;;16.40;10.32;;;3.70;99.90;;;;;;5039493;28;20062;-71
2022/03/15 02:56:45;;;;;;;40.90;10.40;;;3.70;99.90;;;;;;5071462;28;20042;-71
2022/03/15 02:59:14;;;;;;;15.52;9.40;;;3.70;99.90;;;;;;5070949;28;20102;-71
2022/03/15 03:01:43;;;;;;;16.10;9.98;;;3.60;99.90;;;;;;5050352;28;20596;-71
2022/03/15 03:04:09;;;;;;;18.67;10.93;;;3.60;99.90;;;;;;5051615;28;20048;-73
2022/03/15 03:06:35;;;;;;;11.55;9.27;;;3.60;99.90;;;;;;5050356;28;20048;-71
2022/03/15 03:09:00;;;;;;;12.90;10.43;;;3.60;99.90;;;;;;5069728;28;20041;-71
2022/03/15 03:11:26;;;;;;;22.88;10.75;;;3.50;99.90;;;;;;5071887;28;20642;-70
2022/03/15 03:13:55;;;;;;;16.75;9.90;;;3.40;99.90;;;;;;5051792;28;20425;-70
2022/03/15 03:16:21;;;;;;;19.45;11.00;;;3.40;99.90;;;;;;5052729;28;20041;-71
2022/03/15 03:18:47;;;;;;;20.45;11.57;;;3.40;99.90;;;;;;5057933;28;20400;-70
2022/03/15 03:21:12;;;;;;;17.50;11.13;;;3.30;99.90;;;;;;5047328;28;20415;-71
2022/03/15 03:23:39;;;;;;;17.40;11.20;;;3.30;99.90;;;;;;5029970;28;20039;-70
2022/03/15 03:26:06;;;;;;;15.82;8.88;;;3.30;99.90;;;;;;5052574;28;20036;-71
2022/03/15 03:28:38;;;;;;;11.50;8.63;;;3.30;99.90;;;;;;5037554;28;20072;-69
2022/03/15 03:31:09;;;;;;;22.98;10.68;;;3.30;99.90;;;;;;5049778;28;20050;-71
2022/03/15 03:33:35;;;;;;;17.58;9.45;;;3.20;99.90;;;;;;5071328;28;20028;-71
2022/03/15 03:36:01;;;;;;;14.38;8.65;;;3.20;99.90;;;;;;5072686;28;20063;-70
2022/03/15 03:38:27;;;;;;;14.45;8.73;;;3.20;99.90;;;;;;5053344;28;20025;-69
2022/03/15 03:40:54;;;;;;;16.45;8.98;;;3.20;99.90;;;;;;5038223;28;20047;-71
2022/03/15 03:43:20;;;;;;;16.85;8.15;;;3.20;99.90;;;;;;5048055;28;20047;-70
2022/03/15 03:45:46;;;;;;;16.10;8.40;;;3.20;99.90;;;;;;5054142;28;20607;-69
2022/03/15 03:48:12;;;;;;;18.63;8.77;;;3.20;99.90;;;;;;5039211;28;20044;-70
2022/03/15 03:50:38;;;;;;;14.43;9.25;;;3.10;99.90;;;;;;5050573;28;20083;-72
2022/03/15 03:53:04;;;;;;;15.50;9.00;;;3.20;99.90;;;;;;5052385;28;20381;-69
2022/03/15 03:55:30;;;;;;;11.15;8.43;;;3.10;99.90;;;;;;5047716;28;20039;-71
2022/03/15 03:57:56;;;;;;;13.07;7.30;;;3.20;99.90;;;;;;5073571;28;20040;-71
2022/03/15 04:00:22;;;;;;;10.73;6.88;;;3.20;99.90;;;;;;5052406;28;20068;-71
2022/03/15 04:02:48;;;;;;;13.75;8.35;;;3.20;99.90;;;;;;5045773;28;20036;-71
2022/03/15 04:05:15;;;;;;;14.35;7.45;;;3.20;99.90;;;;;;5070255;28;20032;-69
2022/03/15 04:07:41;;;;;;;11.13;6.28;;;3.20;99.90;;;;;;5045756;28;20032;-69
2022/03/15 04:10:08;;;;;;;16.67;8.15;;;3.20;99.90;;;;;;5051946;28;20140;-71
2022/03/15 04:12:35;;;;;;;15.80;8.23;;;3.20;99.90;;;;;;5068318;28;20429;-71
2022/03/15 04:15:02;;;;;;;13.05;7.95;;;3.20;99.90;;;;;;5062652;28;20119;-71
2022/03/15 04:17:28;;;;;;;13.73;7.43;;;3.20;99.90;;;;;;5046584;28;20036;-71
2022/03/15 04:19:54;;;;;;;17.08;6.70;;;3.20;99.90;;;;;;5065985;28;20525;-70
2022/03/15 04:22:23;;;;;;;18.85;7.88;;;3.20;99.90;;;;;;5049443;28;20425;-70
2022/03/15 04:24:48;;;;;;;25.40;9.60;;;3.20;99.90;;;;;;5052739;28;20124;-70
2022/03/15 04:27:15;;;;;;;18.77;7.95;;;3.20;99.90;;;;;;5075374;28;20182;-70
2022/03/15 04:29:41;;;;;;;18.15;8.60;;;3.20;99.90;;;;;;5058807;28;20400;-71
2022/03/15 04:32:07;;;;;;;20.80;8.38;;;3.20;99.90;;;;;;5055868;28;20041;-71
2022/03/15 04:34:33;;;;;;;14.05;7.55;;;3.20;99.90;;;;;;5039235;28;20400;-71
2022/03/15 04:36:59;;;;;;;14.75;7.13;;;3.20;99.90;;;;;;5073100;28;20031;-71
2022/03/15 04:39:25;;;;;;;14.75;8.10;;;3.20;99.90;;;;;;5054260;28;20374;-69
2022/03/15 04:41:51;;;;;;;17.65;7.93;;;3.30;99.90;;;;;;5041733;28;20044;-70
2022/03/15 04:44:18;;;;;;;13.40;7.50;;;3.30;99.90;;;;;;5053871;28;20036;-70
2022/03/15 04:46:44;;;;;;;13.02;7.75;;;3.30;99.90;;;;;;5071409;28;20032;-69
2022/03/15 04:49:10;;;;;;;17.92;8.20;;;3.40;99.90;;;;;;5055624;28;20409;-71
2022/03/15 04:51:35;;;;;;;18.83;9.13;;;3.40;99.90;;;;;;5077722;28;20043;-71
2022/03/15 04:54:02;;;;;;;17.85;8.57;;;3.40;99.90;;;;;;5054132;28;20047;-71
2022/03/15 04:56:28;;;;;;;18.88;8.88;;;3.40;99.90;;;;;;5057012;28;20502;-71
2022/03/15 04:58:53;;;;;;;20.25;9.45;;;3.50;99.90;;;;;;5046969;28;20049;-70
2022/03/15 05:01:19;;;;;;;20.42;9.98;;;3.50;99.90;;;;;;5035423;28;20041;-71
2022/03/15 05:03:46;;;;;;;21.92;10.20;;;3.50;99.90;;;;;;5048889;28;20051;-71
2022/03/15 05:06:11;;;;;;;14.30;9.50;;;3.50;99.90;;;;;;5051793;28;20049;-71
2022/03/15 05:08:37;;;;;;;21.10;11.18;;;3.50;99.90;;;;;;5053089;28;20044;-71
2022/03/15 05:11:05;;;;;;;21.30;12.63;;;3.50;99.90;;;;;;5057547;28;20100;-71
2022/03/15 05:13:43;;;;;;;24.20;11.98;;;3.60;99.90;;;;;;5055185;28;20041;-72
2022/03/15 05:16:10;;;;;;;26.50;13.25;;;3.60;99.90;;;;;;5056832;28;20377;-69
2022/03/15 05:18:36;;;;;;;25.75;12.85;;;3.70;99.90;;;;;;5036654;28;20663;-71
2022/03/15 05:21:03;;;;;;;22.88;11.60;;;3.70;99.90;;;;;;5052537;28;20041;-71
2022/03/15 05:23:29;;;;;;;26.48;13.65;;;3.70;99.90;;;;;;5054149;28;20037;-69
2022/03/15 05:25:55;;;;;;;18.85;11.85;;;3.70;99.90;;;;;;5052740;28;20110;-71
2022/03/15 05:28:20;;;;;;;23.42;11.65;;;3.80;99.90;;;;;;5057725;28;20048;-69
2022/03/15 05:30:46;;;;;;;20.55;12.00;;;3.80;99.90;;;;;;5053171;28;20032;-71
2022/03/15 05:33:12;;;;;;;18.80;11.75;;;3.80;99.90;;;;;;5054913;28;20048;-71
2022/03/15 05:35:38;;;;;;;25.55;13.60;;;3.80;99.90;;;;;;5062021;28;20051;-70
2022/03/15 05:38:04;;;;;;;19.08;11.50;;;3.90;99.90;;;;;;5074408;28;20024;-71
2022/03/15 05:40:30;;;;;;;21.20;11.00;;;3.90;99.90;;;;;;5072876;28;20041;-70
2022/03/15 05:42:57;;;;;;;18.65;12.40;;;3.90;99.90;;;;;;5042586;28;20028;-71
2022/03/15 05:45:23;;;;;;;23.77;12.52;;;3.90;99.90;;;;;;5055278;28;20071;-71
2022/03/15 05:47:48;;;;;;;20.60;11.55;;;3.90;99.90;;;;;;5070406;28;20488;-71
2022/03/15 05:50:14;;;;;;;18.00;11.48;;;3.90;99.90;;;;;;5048677;28;20049;-72
2022/03/15 05:52:40;;;;;;;23.13;12.57;;;4.00;99.90;;;;;;5056086;28;20036;-71
2022/03/15 05:55:07;;;;;;;18.08;9.98;;;4.00;99.90;;;;;;5055238;28;20077;-71
2022/03/15 05:57:33;;;;;;;26.90;12.40;;;4.00;99.90;;;;;;5072184;28;20032;-71
2022/03/15 05:59:58;;;;;;;22.75;12.43;;;4.00;99.90;;;;;;5052853;28;20123;-71
2022/03/15 06:02:24;;;;;;;21.20;12.73;;;4.00;99.90;;;;;;5055384;28;20033;-70
2022/03/15 06:04:50;;;;;;;28.30;12.75;;;4.00;99.90;;;;;;5039541;28;20039;-71
2022/03/15 06:07:16;;;;;;;24.63;14.52;;;4.00;99.90;;;;;;5052399;28;20040;-71
2022/03/15 06:09:42;;;;;;;23.20;12.80;;;4.10;99.90;;;;;;5031232;28;20141;-71
2022/03/15 06:12:09;;;;;;;24.88;13.93;;;4.10;99.90;;;;;;5049220;28;20044;-72
2022/03/15 06:14:35;;;;;;;24.35;13.18;;;4.00;99.90;;;;;;5048261;28;20041;-71
2022/03/15 06:17:00;;;;;;;20.98;12.82;;;4.10;99.90;;;;;;5066683;28;20049;-71
2022/03/15 06:19:26;;;;;;;25.45;14.63;;;4.10;99.90;;;;;;5048985;28;20163;-70
2022/03/15 06:21:52;;;;;;;26.02;16.65;;;4.10;99.90;;;;;;5050359;28;20460;-71
2022/03/15 06:24:18;;;;;;;26.67;16.10;;;4.20;99.90;;;;;;5063811;28;20040;-71
2022/03/15 06:26:45;;;;;;;23.63;15.45;;;4.20;99.90;;;;;;5051553;28;20040;-71
2022/03/15 06:29:11;;;;;;;32.30;17.65;;;4.20;99.90;;;;;;5055873;28;20047;-71
2022/03/15 06:31:37;;;;;;;36.03;18.77;;;4.30;99.90;;;;;;5055381;28;20052;-70
2022/03/15 06:34:04;;;;;;;30.35;17.77;;;4.30;99.90;;;;;;5056346;28;20036;-70
2022/03/15 06:36:30;;;;;;;30.80;20.40;;;4.30;99.90;;;;;;5056165;28;20549;-71
2022/03/15 06:38:57;;;;;;;30.08;19.02;;;4.40;99.90;;;;;;5057307;28;20040;-71
2022/03/15 06:41:22;;;;;;;41.45;21.73;;;4.40;99.90;;;;;;5057623;28;20037;-70
2022/03/15 06:43:48;;;;;;;41.83;23.95;;;4.50;99.90;;;;;;5050686;28;20146;-71
2022/03/15 06:46:17;;;;;;;45.38;25.83;;;4.50;99.90;;;;;;5051333;28;20036;-70
2022/03/15 06:48:42;;;;;;;43.08;25.77;;;4.60;99.90;;;;;;5056781;28;20044;-70
2022/03/15 06:51:08;;;;;;;47.60;28.25;;;4.60;99.90;;;;;;5073917;28;20044;-70
2022/03/15 06:53:34;;;;;;;48.42;28.60;;;4.70;99.90;;;;;;5054034;28;20033;-70
2022/03/15 06:55:59;;;;;;;57.33;32.90;;;4.70;99.90;;;;;;5073506;28;20036;-71
2022/03/15 06:58:25;;;;;;;55.65;32.00;;;4.80;99.90;;;;;;5051477;28;20123;-71
2022/03/15 07:00:52;;;;;;;49.53;29.35;;;4.80;99.90;;;;;;5071799;28;20036;-70
2022/03/15 07:03:17;;;;;;;53.17;30.90;;;4.90;99.90;;;;;;5051010;28;20385;-71
2022/03/15 07:05:44;;;;;;;56.50;32.47;;;4.90;99.90;;;;;;5054787;28;20044;-71
2022/03/15 07:08:10;;;;;;;60.53;33.22;;;5.00;99.90;;;;;;5047351;28;20040;-71
2022/03/15 07:10:36;;;;;;;56.58;32.08;;;5.10;99.90;;;;;;5055247;28;20036;-70
2022/03/15 07:13:02;;;;;;;56.17;31.65;;;5.10;99.90;;;;;;5052380;28;20515;-73
2022/03/15 07:15:28;;;;;;;58.10;31.77;;;5.20;99.90;;;;;;5050260;28;20033;-72
2022/03/15 07:17:57;;;;;;;54.33;31.77;;;5.20;99.90;;;;;;5050317;28;20048;-70
2022/03/15 07:20:24;;;;;;;58.95;33.50;;;5.30;99.90;;;;;;5036167;28;20044;-72
2022/03/15 07:22:51;;;;;;;53.75;35.28;;;5.30;99.90;;;;;;5064527;28;20043;-71
2022/03/15 07:25:17;;;;;;;56.92;34.28;;;5.40;99.90;;;;;;5067277;28;20047;-70
2022/03/15 07:27:43;;;;;;;57.80;34.78;;;5.40;99.90;;;;;;5044446;28;20048;-72
2022/03/15 07:30:11;;;;;;;54.55;33.50;;;5.50;99.90;;;;;;5034505;28;20072;-71
2022/03/15 07:32:36;;;;;;;54.40;34.35;;;5.60;99.90;;;;;;5048135;28;20049;-71
2022/03/15 07:35:03;;;;;;;60.55;34.38;;;5.60;99.90;;;;;;5020596;28;20055;-70
2022/03/15 07:37:29;;;;;;;54.28;33.50;;;5.70;99.90;;;;;;5050784;28;20098;-71
2022/03/15 07:39:54;;;;;;;52.45;33.90;;;5.70;99.90;;;;;;5053050;28;20573;-71
2022/03/15 07:42:23;;;;;;;62.03;37.92;;;5.80;99.90;;;;;;5069422;28;20443;-71
2022/03/15 07:44:49;;;;;;;55.60;33.47;;;5.80;99.90;;;;;;5033140;28;20043;-71
2022/03/15 07:47:15;;;;;;;60.92;37.05;;;5.90;99.90;;;;;;5037666;28;20048;-72
2022/03/15 07:49:41;;;;;;;62.50;39.53;;;5.90;99.90;;;;;;5067719;28;20436;-71
2022/03/15 07:52:08;;;;;;;56.88;35.58;;;6.00;99.90;;;;;;5068308;28;20067;-71
2022/03/15 07:54:34;;;;;;;57.35;37.95;;;6.10;99.90;;;;;;5071762;28;20040;-71
2022/03/15 07:57:01;;;;;;;52.95;35.78;;;6.10;99.90;;;;;;5050209;28;20059;-70
2022/03/15 07:59:27;;;;;;;53.03;35.92;;;6.20;99.90;;;;;;5055060;28;20040;-70
2022/03/15 08:01:53;;;;;;;62.22;38.25;;;6.30;99.90;;;;;;5040782;28;20077;-69
2022/03/15 08:04:19;;;;;;;58.58;37.55;;;6.30;99.90;;;;;;5057624;28;20041;-69
2022/03/15 08:06:45;;;;;;;55.67;37.50;;;6.40;99.90;;;;;;5054307;28;20529;-69
2022/03/15 08:09:10;;;;;;;53.78;36.35;;;6.40;99.90;;;;;;5037073;28;20420;-71
2022/03/15 08:11:36;;;;;;;50.08;34.80;;;6.50;99.90;;;;;;5060182;28;20489;-70
2022/03/15 08:14:03;;;;;;;56.17;36.25;;;6.50;99.90;;;;;;5073422;28;20040;-69
2022/03/15 08:16:28;;;;;;;53.72;37.30;;;6.60;99.90;;;;;;5039159;28;20044;-68
2022/03/15 08:18:55;;;;;;;52.83;35.83;;;6.60;99.90;;;;;;5054003;28;20409;-69
2022/03/15 08:21:22;;;;;;;47.53;34.40;;;6.60;99.90;;;;;;5055781;28;20040;-71
2022/03/15 08:23:48;;;;;;;58.20;36.08;;;6.70;99.90;;;;;;5055710;28;20028;-70
2022/03/15 08:26:15;;;;;;;52.72;36.55;;;6.70;99.90;;;;;;5057139;28;20407;-70
2022/03/15 08:28:41;;;;;;;51.83;35.85;;;6.70;99.90;;;;;;5050367;28;20033;-72
2022/03/15 08:31:06;;;;;;;51.88;35.42;;;6.80;99.90;;;;;;5054029;28;20039;-71
2022/03/15 08:33:33;;;;;;;54.15;36.42;;;6.90;99.90;;;;;;5055565;28;20439;-71
2022/03/15 08:35:59;;;;;;;51.40;35.40;;;6.90;99.90;;;;;;5055812;28;20033;-71
2022/03/15 08:38:26;;;;;;;53.10;35.13;;;6.90;99.90;;;;;;5054334;28;20426;-71
2022/03/15 08:40:52;;;;;;;46.47;35.40;;;6.90;99.90;;;;;;5057333;28;20055;-71
2022/03/15 08:43:18;;;;;;;49.22;34.22;;;7.00;99.90;;;;;;5056624;28;20047;-71
2022/03/15 08:45:44;;;;;;;49.08;35.45;;;7.00;99.90;;;;;;5075885;28;20036;-71
2022/03/15 08:48:10;;;;;;;53.95;35.17;;;7.00;99.90;;;;;;5055212;28;20556;-71
2022/03/15 08:50:36;;;;;;;52.17;34.55;;;7.10;99.90;;;;;;5055647;28;20090;-75
2022/03/15 08:53:02;;;;;;;45.05;34.17;;;7.10;99.90;;;;;;5023099;28;20041;-69
2022/03/15 08:55:29;;;;;;;48.08;33.53;;;7.20;99.90;;;;;;5034376;28;20040;-71
2022/03/15 08:57:55;;;;;;;45.83;33.72;;;7.20;99.90;;;;;;5072747;28;20483;-71
2022/03/15 09:00:21;;;;;;;50.42;35.38;;;7.20;99.90;;;;;;5051054;28;20044;-68
2022/03/15 09:02:47;;;;;;;51.42;34.85;;;7.20;99.90;;;;;;5054186;28;20498;-72
2022/03/15 09:05:16;;;;;;;49.55;34.47;;;7.30;99.90;;;;;;5055818;28;20036;-71
2022/03/15 09:07:42;;;;;;;47.95;33.55;;;7.30;99.90;;;;;;5051607;28;20090;-69
2022/03/15 09:10:08;;;;;;;48.97;33.38;;;7.30;99.90;;;;;;5053155;28;20513;-70
2022/03/15 09:12:34;;;;;;;49.63;33.53;;;7.40;99.90;;;;;;5052029;28;20485;-71
2022/03/15 09:15:00;;;;;;;48.53;33.10;;;7.40;99.90;;;;;;5055413;28;20041;-71
2022/03/15 09:17:25;;;;;;;47.13;32.75;;;7.50;99.90;;;;;;5064657;28;20693;-71
2022/03/15 09:19:51;;;;;;;58.33;36.17;;;7.50;99.90;;;;;;5070144;28;20585;-70
2022/03/15 09:22:17;;;;;;;49.70;34.08;;;7.50;99.90;;;;;;5067758;28;20094;-70
2022/03/15 09:24:43;;;;;;;47.85;31.42;;;7.50;99.90;;;;;;5052062;28;20040;-70
2022/03/15 09:27:12;;;;;;;51.55;34.22;;;7.50;99.90;;;;;;5049988;28;20143;-70
2022/03/15 09:29:38;;;;;;;46.35;34.28;;;7.60;99.90;;;;;;5047902;28;22789;-71
2022/03/15 09:32:05;;;;;;;48.85;33.45;;;7.60;99.90;;;;;;5048007;28;20059;-72
2022/03/15 09:34:30;;;;;;;46.20;33.20;;;7.70;99.90;;;;;;5048568;28;20102;-72
2022/03/15 09:36:59;;;;;;;45.55;33.40;;;7.70;99.90;;;;;;5056358;28;20035;-72
2022/03/15 09:39:25;;;;;;;45.55;31.00;;;7.80;99.90;;;;;;5073667;28;20047;-72
2022/03/15 09:41:54;;;;;;;46.97;32.95;;;7.80;99.90;;;;;;5060559;28;20040;-70
2022/03/15 09:44:25;;;;;;;42.53;31.30;;;7.80;99.90;;;;;;5020322;28;20067;-70
2022/03/15 09:46:51;;;;;;;40.92;31.40;;;7.90;99.90;;;;;;5050409;28;20056;-71
2022/03/15 09:49:18;;;;;;;43.25;31.83;;;8.00;99.90;;;;;;5054941;28;20081;-69
2022/03/15 09:51:46;;;;;;;42.90;30.63;;;8.10;99.90;;;;;;5058880;28;20392;-69
2022/03/15 09:54:13;;;;;;;40.65;30.45;;;8.10;99.90;;;;;;5018013;28;20051;-72
2022/03/15 09:56:40;;;;;;;45.70;31.40;;;8.20;99.90;;;;;;5036148;28;20040;-70
2022/03/15 09:59:16;;;;;;;43.45;30.75;;;8.20;99.90;;;;;;5031194;28;20584;-71
2022/03/15 10:01:47;;;;;;;43.17;29.77;;;8.40;99.90;;;;;;5050526;28;20105;-70
2022/03/15 10:04:13;;;;;;;36.03;28.73;;;8.30;99.90;;;;;;5048982;28;20036;-71
2022/03/15 10:06:39;;;;;;;45.20;28.33;;;8.50;99.90;;;;;;5057293;28;20032;-71
2022/03/15 10:09:06;;;;;;;36.70;26.98;;;8.50;99.90;;;;;;5037180;28;20128;-70
2022/03/15 10:11:33;;;;;;;39.60;26.60;;;8.50;99.90;;;;;;5069388;28;20039;-70
2022/03/15 10:13:59;;;;;;;37.10;25.50;;;8.60;99.90;;;;;;5021694;28;20079;-71
2022/03/15 10:16:32;;;;;;;32.92;25.83;;;8.60;99.90;;;;;;5067430;28;20071;-71
2022/03/15 10:18:59;;;;;;;35.35;25.40;;;8.60;99.90;;;;;;5070095;28;20036;-71
2022/03/15 10:21:42;;;;;;;36.38;25.90;;;8.70;99.90;;;;;;5050696;28;20048;-71
2022/03/15 10:24:08;;;;;;;37.42;25.35;;;8.70;99.90;;;;;;5041124;28;20033;-71
2022/03/15 10:26:38;;;;;;;35.20;27.65;;;8.80;99.90;;;;;;5052338;28;20044;-70
2022/03/15 10:29:06;;;;;;;36.63;26.88;;;8.90;99.90;;;;;;5067030;28;20127;-71
2022/03/15 10:31:32;;;;;;;37.78;26.48;;;9.00;99.90;;;;;;5071191;28;20036;-70
2022/03/15 10:34:00;;;;;;;38.03;26.63;;;9.00;99.90;;;;;;5026347;28;20111;-69
2022/03/15 10:36:27;;;;;;;36.70;24.73;;;9.10;99.90;;;;;;5038724;28;20040;-71
2022/03/15 10:38:53;;;;;;;32.58;24.15;;;9.20;99.90;;;;;;5066129;28;20044;-71
2022/03/15 10:41:20;;;;;;;38.08;24.23;;;9.30;99.90;;;;;;5053184;28;20405;-71
2022/03/15 10:43:57;;;;;;;33.83;24.85;;;9.40;99.90;;;;;;5048247;28;20118;-70
2022/03/15 10:46:25;;;;;;;34.00;24.60;;;9.50;99.90;;;;;;5057064;28;20032;-72
2022/03/15 10:49:02;;;;;;;32.38;24.35;;;9.50;99.90;;;;;;5061755;28;20169;-70
2022/03/15 10:51:28;;;;;;;31.85;22.40;;;9.70;99.90;;;;;;5068616;28;20499;-72
2022/03/15 10:54:03;;;;;;;30.70;23.00;;;9.70;99.90;;;;;;5050789;28;20036;-71
2022/03/15 10:56:30;;;;;;;31.35;23.05;;;9.80;99.90;;;;;;5067481;28;20060;-71
2022/03/15 10:59:02;;;;;;;30.85;23.15;;;9.90;99.90;;;;;;5050728;28;20158;-71
2022/03/15 11:01:48;;;;;;;31.85;22.60;;;10.00;99.90;;;;;;5065832;28;20035;-71
2022/03/15 11:04:23;;;;;;;29.17;22.77;;;10.10;99.90;;;;;;5049579;28;20040;-71
2022/03/15 11:06:51;;;;;;;32.03;22.67;;;10.20;99.90;;;;;;5049079;28;20512;-71
2022/03/15 11:09:32;;;;;;;35.63;28.33;;;10.20;99.90;;;;;;5034952;28;20498;-71
2022/03/15 11:12:05;;;;;;;28.08;22.15;;;10.30;99.90;;;;;;5040399;28;20126;-69
2022/03/15 11:14:44;;;;;;;25.15;20.52;;;10.30;99.90;;;;;;5037918;28;20040;-71
2022/03/15 11:17:19;;;;;;;27.20;20.45;;;10.40;99.90;;;;;;5052595;28;20098;-71
2022/03/15 11:19:50;;;;;;;31.50;21.52;;;10.40;99.90;;;;;;5066922;28;20057;-70
2022/03/15 11:22:20;;;;;;;28.38;21.42;;;10.40;99.90;;;;;;5061636;28;21211;-71
2022/03/15 11:25:02;;;;;;;28.55;21.00;;;10.50;99.90;;;;;;5072962;28;20029;-71
2022/03/15 11:27:31;;;;;;;29.83;20.92;;;10.50;99.90;;;;;;5071949;28;20036;-71
2022/03/15 11:30:02;;;;;;;24.27;19.40;;;10.50;99.90;;;;;;5047525;28;20480;-71
2022/03/15 11:32:31;;;;;;;26.60;19.83;;;10.50;99.90;;;;;;5052471;28;20040;-71
2022/03/15 11:34:57;;;;;;;28.00;20.23;;;10.60;99.90;;;;;;5051189;28;20066;-70
2022/03/15 11:37:22;;;;;;;28.15;19.83;;;10.50;99.90;;;;;;5058396;28;20175;-70
2022/03/15 11:39:49;;;;;;;24.77;19.02;;;10.50;99.90;;;;;;5043473;28;20500;-71
2022/03/15 11:42:16;;;;;;;25.95;18.23;;;10.60;99.90;;;;;;5057615;28;20090;-70
2022/03/15 11:45:11;;;;;;;24.10;18.88;;;10.60;99.90;;;;;;5041494;28;20036;-71
2022/03/15 11:47:42;;;;;;;27.55;19.20;;;10.60;99.90;;;;;;5070104;28;20075;-71
2022/03/15 11:50:10;;;;;;;25.08;19.88;;;10.60;99.90;;;;;;5055711;28;20059;-71
2022/03/15 11:52:48;;;;;;;25.20;18.55;;;10.60;99.90;;;;;;5056564;28;20048;-71
2022/03/15 11:55:24;;;;;;;23.67;18.33;;;10.70;99.90;;;;;;5053602;28;20044;-71
2022/03/15 11:58:00;;;;;;;23.73;17.67;;;10.70;99.90;;;;;;5058537;28;20048;-71
2022/03/15 12:00:36;;;;;;;27.15;18.15;;;10.70;99.90;;;;;;5067492;28;20048;-71
2022/03/15 12:03:08;;;;;;;25.08;18.23;;;10.70;99.90;;;;;;5037047;28;20140;-71
2022/03/15 12:05:47;;;;;;;25.52;18.10;;;10.80;99.90;;;;;;5073275;28;20044;-71
2022/03/15 12:08:18;;;;;;;24.95;18.05;;;10.80;99.90;;;;;;5054934;28;20044;-71
2022/03/15 12:10:55;;;;;;;24.17;17.45;;;10.90;99.90;;;;;;5051524;28;20036;-71
2022/03/15 12:13:31;;;;;;;26.13;16.67;;;10.90;99.90;;;;;;5050004;28;20059;-71
2022/03/15 12:16:15;;;;;;;22.27;16.75;;;11.00;99.90;;;;;;5056124;28;20109;-71
2022/03/15 12:18:48;;;;;;;20.58;16.10;;;11.10;99.90;;;;;;5054233;28;20047;-71
2022/03/15 12:21:14;;;;;;;23.70;16.30;;;11.20;99.90;;;;;;5057430;28;20036;-71
2022/03/15 12:23:48;;;;;;;19.80;15.10;;;11.30;99.90;;;;;;5055365;28;20036;-71
2022/03/15 12:26:24;;;;;;;21.92;14.90;;;11.40;99.90;;;;;;5054747;28;20109;-71
2022/03/15 12:29:02;;;;;;;20.92;15.48;;;11.40;99.90;;;;;;5055957;28;20120;-71
2022/03/15 12:31:47;;;;;;;25.00;16.75;;;11.50;99.90;;;;;;5058521;28;20132;-71
2022/03/15 12:34:18;;;;;;;40.50;16.00;;;11.60;99.90;;;;;;5055022;28;20545;-70
2022/03/15 12:36:52;;;;;;;21.80;14.93;;;11.70;99.90;;;;;;5056441;28;20041;-72
2022/03/15 12:39:21;;;;;;;27.63;16.02;;;11.80;99.90;;;;;;5038454;28;20036;-72